Time;durP1;ratioP1;P1;durP2;ratioP2;P2;SDS_P1;SDS_P2;PMS_P1;PMS_P2;Temp;Humidity;BMP_temperature;BMP_pressure;BME280_temperature;BME280_humidity;BME280_pressure;Samples;Min_cycle;Max_cycle;Signal;HPM_P1;HPM_P2
2021/09/11 00:00:58;;;;;;;9.00;8.10;;;19.40;90.00;;;;;;5066767;28;20474;-72
2021/09/11 00:03:23;;;;;;;9.60;8.55;;;19.30;90.00;;;;;;5034773;28;20116;-73
2021/09/11 00:05:49;;;;;;;9.13;8.23;;;19.30;90.00;;;;;;5034711;28;20029;-73
2021/09/11 00:08:15;;;;;;;11.10;8.68;;;19.30;90.00;;;;;;5066802;28;20108;-74
2021/09/11 00:10:40;;;;;;;9.93;8.73;;;19.30;90.10;;;;;;5034625;28;20477;-72
2021/09/11 00:13:06;;;;;;;9.45;8.63;;;19.30;90.10;;;;;;5066654;28;20032;-73
2021/09/11 00:15:32;;;;;;;9.77;8.82;;;19.30;90.10;;;;;;5066626;28;20489;-73
2021/09/11 00:17:59;;;;;;;10.35;9.20;;;19.30;90.10;;;;;;5066966;28;20401;-73
2021/09/11 00:20:25;;;;;;;9.80;8.90;;;19.20;90.10;;;;;;5066602;28;20013;-74
2021/09/11 00:22:50;;;;;;;10.13;9.10;;;19.20;90.10;;;;;;5034207;28;20037;-73
2021/09/11 00:25:16;;;;;;;9.90;9.00;;;19.20;90.10;;;;;;5066270;28;20037;-73
2021/09/11 00:27:42;;;;;;;10.55;9.45;;;19.20;90.10;;;;;;5034288;28;20025;-73
2021/09/11 00:30:08;;;;;;;9.98;8.88;;;19.20;90.10;;;;;;5034410;28;20032;-73
2021/09/11 00:32:34;;;;;;;9.57;8.68;;;19.20;90.10;;;;;;5066383;28;20009;-73
2021/09/11 00:35:01;;;;;;;10.88;9.68;;;19.20;90.20;;;;;;5066262;28;20014;-74
2021/09/11 00:37:26;;;;;;;9.93;8.93;;;19.10;90.10;;;;;;5066419;28;20022;-73
2021/09/11 00:39:52;;;;;;;12.15;10.10;;;19.10;90.10;;;;;;5074008;28;20036;-74
2021/09/11 00:42:18;;;;;;;11.57;9.75;;;19.10;90.10;;;;;;5056028;28;20024;-73
2021/09/11 00:44:43;;;;;;;10.40;9.35;;;19.10;90.10;;;;;;5056153;28;20021;-73
2021/09/11 00:47:09;;;;;;;11.75;10.55;;;19.00;90.10;;;;;;5055255;28;20055;-73
2021/09/11 00:49:34;;;;;;;12.05;9.60;;;19.00;90.10;;;;;;5056132;28;20013;-73
2021/09/11 00:52:00;;;;;;;10.80;8.98;;;18.90;90.10;;;;;;5055842;28;20020;-73
2021/09/11 00:54:25;;;;;;;10.82;9.75;;;19.00;90.20;;;;;;5055851;28;20029;-73
2021/09/11 00:56:51;;;;;;;9.45;8.45;;;19.00;90.20;;;;;;5073806;28;20025;-73
2021/09/11 00:59:17;;;;;;;10.70;9.60;;;18.90;90.10;;;;;;5055738;28;20503;-73
2021/09/11 01:01:42;;;;;;;10.25;9.13;;;18.90;90.10;;;;;;5073757;28;20032;-73
2021/09/11 01:04:08;;;;;;;9.32;8.30;;;18.90;90.10;;;;;;5055891;28;20113;-73
2021/09/11 01:06:35;;;;;;;9.07;8.20;;;18.90;90.10;;;;;;5073555;28;20020;-73
2021/09/11 01:09:01;;;;;;;9.52;8.63;;;18.90;90.10;;;;;;5073492;28;20021;-73
2021/09/11 01:11:26;;;;;;;9.93;8.70;;;18.90;90.10;;;;;;5073491;28;20020;-73
2021/09/11 01:13:52;;;;;;;8.93;8.05;;;18.90;90.00;;;;;;5055452;28;20031;-73
2021/09/11 01:16:18;;;;;;;9.05;8.10;;;18.90;90.00;;;;;;5055569;28;20107;-73
2021/09/11 01:18:44;;;;;;;8.95;8.05;;;18.90;90.00;;;;;;5055391;28;20357;-73
2021/09/11 01:21:10;;;;;;;9.25;7.72;;;18.90;90.00;;;;;;5055310;28;20024;-73
2021/09/11 01:23:41;;;;;;;9.63;8.65;;;18.80;89.80;;;;;;5055309;28;20423;-73
2021/09/11 01:26:07;;;;;;;9.68;7.60;;;18.90;89.90;;;;;;5055256;28;20484;-73
2021/09/11 01:28:33;;;;;;;8.38;7.38;;;18.80;89.80;;;;;;5055198;28;20021;-73
2021/09/11 01:30:58;;;;;;;8.40;7.60;;;18.80;89.90;;;;;;5073211;28;20361;-73
2021/09/11 01:33:24;;;;;;;10.43;7.88;;;18.80;89.90;;;;;;5073152;28;20036;-73
2021/09/11 01:35:53;;;;;;;8.00;6.93;;;18.80;89.90;;;;;;5055087;28;20046;-73
2021/09/11 01:38:19;;;;;;;8.77;7.47;;;18.70;89.80;;;;;;5054967;28;20052;-73
2021/09/11 01:40:45;;;;;;;9.20;7.75;;;18.70;89.80;;;;;;5073051;28;20073;-73
2021/09/11 01:43:10;;;;;;;8.60;7.50;;;18.70;89.70;;;;;;5054840;28;20021;-73
2021/09/11 01:45:36;;;;;;;9.32;7.65;;;18.60;89.60;;;;;;5054986;28;20105;-73
2021/09/11 01:48:01;;;;;;;8.93;7.95;;;18.60;89.50;;;;;;5054884;28;20036;-73
2021/09/11 01:50:27;;;;;;;9.32;7.60;;;18.60;89.50;;;;;;5054984;28;20025;-74
2021/09/11 01:52:53;;;;;;;8.80;7.25;;;18.50;89.40;;;;;;5054942;28;20059;-73
2021/09/11 01:55:20;;;;;;;9.10;7.28;;;18.50;89.40;;;;;;5054813;28;20028;-73
2021/09/11 01:57:46;;;;;;;9.88;7.38;;;18.40;90.00;;;;;;5072848;28;20017;-73
2021/09/11 02:00:15;;;;;;;9.25;7.50;;;18.40;89.40;;;;;;5054750;28;20033;-73
2021/09/11 02:02:41;;;;;;;9.25;7.60;;;18.40;89.60;;;;;;5054707;28;20020;-73
2021/09/11 02:05:08;;;;;;;8.27;6.93;;;18.40;89.60;;;;;;5072758;28;20078;-73
2021/09/11 02:07:35;;;;;;;8.55;7.63;;;18.40;89.60;;;;;;5072826;28;20488;-73
2021/09/11 02:10:01;;;;;;;9.52;7.43;;;18.40;89.60;;;;;;5054706;28;20545;-73
2021/09/11 02:12:27;;;;;;;7.93;7.13;;;18.40;89.60;;;;;;5072691;28;20021;-73
2021/09/11 02:14:52;;;;;;;9.80;7.15;;;18.40;89.60;;;;;;5054646;28;20087;-73
2021/09/11 02:17:18;;;;;;;9.10;7.07;;;18.40;89.60;;;;;;5072629;28;20056;-73
2021/09/11 02:19:44;;;;;;;8.95;7.57;;;18.40;89.60;;;;;;5054700;28;20055;-76
2021/09/11 02:22:11;;;;;;;10.02;7.40;;;18.40;89.60;;;;;;5054520;28;20029;-73
2021/09/11 02:24:37;;;;;;;8.93;7.30;;;18.40;89.60;;;;;;5054485;28;20129;-73
2021/09/11 02:27:03;;;;;;;11.35;7.40;;;18.30;89.60;;;;;;5054495;28;20071;-73
2021/09/11 02:29:29;;;;;;;9.23;7.78;;;18.30;89.50;;;;;;5072511;28;20393;-73
2021/09/11 02:31:55;;;;;;;10.88;7.53;;;18.30;89.50;;;;;;5072505;28;20020;-73
2021/09/11 02:34:20;;;;;;;10.70;7.15;;;18.30;89.40;;;;;;5054498;28;20029;-73
2021/09/11 02:36:46;;;;;;;8.20;7.10;;;18.20;89.40;;;;;;5072435;28;20028;-73
2021/09/11 02:39:12;;;;;;;8.95;7.18;;;18.20;89.40;;;;;;5054243;28;20522;-73
2021/09/11 02:41:37;;;;;;;8.50;6.97;;;18.20;89.30;;;;;;5054417;28;20473;-73
2021/09/11 02:44:04;;;;;;;8.18;7.03;;;18.10;89.20;;;;;;5072115;28;20388;-73
2021/09/11 02:46:31;;;;;;;9.32;7.03;;;18.10;89.30;;;;;;5054449;28;20021;-73
2021/09/11 02:48:58;;;;;;;12.85;7.72;;;18.10;89.40;;;;;;5072329;28;20021;-73
2021/09/11 02:51:25;;;;;;;10.32;7.47;;;18.10;89.40;;;;;;5054324;28;20383;-73
2021/09/11 02:53:51;;;;;;;11.07;7.20;;;18.10;89.40;;;;;;5072335;28;20054;-73
2021/09/11 02:56:16;;;;;;;8.95;6.88;;;18.00;89.30;;;;;;5054297;28;20020;-73
2021/09/11 02:58:42;;;;;;;8.20;7.22;;;18.00;89.20;;;;;;5054247;28;20388;-73
2021/09/11 03:01:07;;;;;;;11.25;7.72;;;18.00;89.20;;;;;;5054312;28;20085;-73
2021/09/11 03:03:33;;;;;;;8.90;7.40;;;18.00;89.20;;;;;;5054189;28;20028;-73
2021/09/11 03:05:59;;;;;;;11.05;7.50;;;17.90;89.20;;;;;;5085039;28;20111;-73
2021/09/11 03:08:24;;;;;;;9.13;7.97;;;17.90;89.20;;;;;;5072244;28;20023;-73
2021/09/11 03:10:50;;;;;;;10.23;7.75;;;17.90;89.20;;;;;;5074303;28;20086;-73
2021/09/11 03:13:15;;;;;;;8.63;6.90;;;17.80;89.30;;;;;;5075787;28;20094;-73
2021/09/11 03:15:41;;;;;;;8.43;7.35;;;17.80;89.40;;;;;;5057787;28;20020;-73
2021/09/11 03:18:07;;;;;;;8.85;7.13;;;17.80;89.40;;;;;;5057758;28;20025;-73
2021/09/11 03:20:33;;;;;;;8.35;7.35;;;17.80;89.40;;;;;;5057667;28;20027;-73
2021/09/11 03:22:58;;;;;;;9.90;7.57;;;17.80;89.40;;;;;;5057633;28;20185;-73
2021/09/11 03:25:24;;;;;;;8.32;7.43;;;17.80;89.30;;;;;;5075480;28;20024;-73
2021/09/11 03:27:49;;;;;;;12.30;7.88;;;17.80;89.40;;;;;;5057555;28;20020;-73
2021/09/11 03:30:15;;;;;;;10.05;7.25;;;17.80;89.30;;;;;;5057472;28;20039;-73
2021/09/11 03:32:41;;;;;;;10.43;7.30;;;17.80;89.30;;;;;;5075458;28;20067;-73
2021/09/11 03:35:07;;;;;;;9.75;7.53;;;17.80;89.30;;;;;;5057425;28;20119;-73
2021/09/11 03:37:33;;;;;;;10.90;7.75;;;17.80;89.20;;;;;;5057174;28;20029;-73
2021/09/11 03:39:58;;;;;;;11.80;7.43;;;17.70;89.20;;;;;;5057336;28;20127;-73
2021/09/11 03:42:24;;;;;;;12.00;7.47;;;17.70;89.20;;;;;;5057213;28;20009;-72
2021/09/11 03:44:50;;;;;;;10.07;8.02;;;17.70;89.20;;;;;;5056995;28;20035;-71
2021/09/11 03:47:15;;;;;;;12.20;8.18;;;17.70;89.20;;;;;;5057077;28;20115;-72
2021/09/11 03:49:41;;;;;;;11.15;8.40;;;17.70;89.20;;;;;;5075112;28;20029;-73
2021/09/11 03:52:07;;;;;;;11.43;8.90;;;17.70;89.20;;;;;;5057064;28;20095;-72
2021/09/11 03:54:32;;;;;;;10.23;8.13;;;17.70;89.20;;;;;;5056918;28;20024;-72
2021/09/11 03:56:58;;;;;;;11.45;8.80;;;17.70;89.10;;;;;;5056967;28;20377;-73
2021/09/11 03:59:23;;;;;;;9.63;8.13;;;17.60;89.10;;;;;;5056922;28;20059;-73
2021/09/11 04:01:49;;;;;;;9.93;8.32;;;17.60;89.10;;;;;;5056869;28;20082;-73
2021/09/11 04:04:15;;;;;;;10.32;8.30;;;17.60;89.10;;;;;;5074636;28;20056;-73
2021/09/11 04:06:41;;;;;;;11.35;8.52;;;17.60;89.10;;;;;;5056787;28;20388;-72
2021/09/11 04:09:07;;;;;;;11.25;8.82;;;17.60;89.10;;;;;;5056641;28;20017;-72
2021/09/11 04:11:32;;;;;;;11.02;8.10;;;17.60;89.10;;;;;;5074590;28;20100;-73
2021/09/11 04:13:58;;;;;;;11.32;8.85;;;17.60;89.10;;;;;;5074646;28;20107;-73
2021/09/11 04:16:23;;;;;;;11.02;8.90;;;17.60;89.20;;;;;;5056708;28;20013;-73
2021/09/11 04:18:49;;;;;;;10.70;8.27;;;17.60;89.20;;;;;;5056531;28;20028;-73
2021/09/11 04:21:15;;;;;;;9.90;8.55;;;17.60;89.20;;;;;;5073639;28;20021;-73
2021/09/11 04:23:40;;;;;;;12.20;8.75;;;17.60;89.20;;;;;;5074073;28;20495;-73
2021/09/11 04:26:06;;;;;;;10.90;9.07;;;17.60;89.20;;;;;;5056406;28;20021;-73
2021/09/11 04:28:31;;;;;;;10.63;8.48;;;17.60;89.20;;;;;;5056391;28;20021;-73
2021/09/11 04:30:57;;;;;;;11.82;8.73;;;17.70;89.20;;;;;;5056301;28;20465;-73
2021/09/11 04:33:22;;;;;;;10.95;8.73;;;17.70;89.00;;;;;;5074177;28;20050;-73
2021/09/11 04:35:48;;;;;;;9.68;8.27;;;17.70;88.90;;;;;;5056265;28;20028;-73
2021/09/11 04:38:13;;;;;;;10.30;8.57;;;17.70;88.80;;;;;;5073873;28;20106;-73
2021/09/11 04:40:39;;;;;;;9.70;8.60;;;17.80;88.80;;;;;;5056389;28;20021;-73
2021/09/11 04:43:07;;;;;;;10.85;8.23;;;17.80;88.80;;;;;;5056016;28;20123;-73
2021/09/11 04:45:33;;;;;;;11.02;8.55;;;17.80;88.80;;;;;;5056017;28;20480;-73
2021/09/11 04:47:59;;;;;;;10.10;8.15;;;17.80;88.80;;;;;;5055995;28;20139;-73
2021/09/11 04:50:25;;;;;;;10.13;8.48;;;17.80;88.70;;;;;;5055975;28;20100;-73
2021/09/11 04:52:50;;;;;;;11.55;8.38;;;17.80;88.60;;;;;;5055908;28;20116;-74
2021/09/11 04:55:16;;;;;;;10.40;7.88;;;17.80;88.60;;;;;;5055963;28;20021;-74
2021/09/11 04:57:42;;;;;;;9.20;7.85;;;17.80;88.60;;;;;;5055860;28;20032;-74
2021/09/11 05:00:08;;;;;;;9.75;8.15;;;17.80;88.60;;;;;;5073671;28;20059;-75
2021/09/11 05:02:34;;;;;;;9.27;7.88;;;17.80;88.50;;;;;;5055617;28;20127;-74
2021/09/11 05:04:59;;;;;;;8.73;7.43;;;17.80;88.50;;;;;;5055911;28;20405;-74
2021/09/11 05:07:25;;;;;;;11.27;8.23;;;17.80;88.50;;;;;;5055579;28;20022;-74
2021/09/11 05:09:51;;;;;;;11.25;8.05;;;17.80;88.40;;;;;;5073481;28;20484;-75
2021/09/11 05:12:16;;;;;;;9.40;7.80;;;17.80;88.50;;;;;;5055522;28;20017;-74
2021/09/11 05:14:42;;;;;;;11.07;7.60;;;17.80;88.40;;;;;;5073448;28;20494;-74
2021/09/11 05:17:07;;;;;;;8.95;7.90;;;17.80;88.40;;;;;;5055370;28;20024;-74
2021/09/11 05:19:33;;;;;;;9.75;7.72;;;17.80;88.40;;;;;;5055394;28;20036;-75
2021/09/11 05:21:59;;;;;;;7.70;6.85;;;17.80;88.30;;;;;;5055342;28;20029;-74
2021/09/11 05:24:24;;;;;;;9.50;7.32;;;17.80;88.30;;;;;;5055228;28;20020;-74
2021/09/11 05:26:50;;;;;;;10.93;7.10;;;17.80;88.30;;;;;;5073205;28;20013;-74
2021/09/11 05:29:16;;;;;;;8.23;6.80;;;17.80;88.30;;;;;;5055178;28;20017;-74
2021/09/11 05:31:41;;;;;;;10.27;7.35;;;17.80;88.30;;;;;;5055189;28;20051;-74
2021/09/11 05:34:07;;;;;;;12.18;7.32;;;17.80;88.30;;;;;;5072977;28;20040;-74
2021/09/11 05:36:33;;;;;;;7.60;6.70;;;17.90;88.30;;;;;;5073123;28;20028;-74
2021/09/11 05:38:59;;;;;;;9.95;6.75;;;17.90;88.20;;;;;;5072813;28;20048;-75
2021/09/11 05:41:24;;;;;;;8.38;6.82;;;17.90;88.20;;;;;;5055146;28;20404;-74
2021/09/11 05:43:50;;;;;;;10.60;6.68;;;17.90;88.10;;;;;;5054871;28;20059;-75
2021/09/11 05:46:16;;;;;;;10.70;6.70;;;17.90;88.10;;;;;;5055319;28;20017;-75
2021/09/11 05:48:42;;;;;;;8.50;5.80;;;17.90;88.10;;;;;;5054970;28;20016;-75
2021/09/11 05:51:07;;;;;;;7.32;6.50;;;17.90;88.10;;;;;;5072917;28;20357;-74
2021/09/11 05:53:33;;;;;;;7.35;6.50;;;17.90;88.00;;;;;;5054936;28;20020;-75
2021/09/11 05:55:59;;;;;;;9.38;6.70;;;17.90;88.00;;;;;;5072867;28;20028;-74
2021/09/11 05:58:25;;;;;;;10.93;6.72;;;17.90;88.00;;;;;;5072792;28;20112;-74
2021/09/11 06:00:50;;;;;;;7.43;6.13;;;18.00;88.00;;;;;;5054767;28;20020;-74
2021/09/11 06:03:16;;;;;;;8.07;6.03;;;18.00;88.60;;;;;;5054678;28;20024;-74
2021/09/11 06:05:42;;;;;;;6.97;6.00;;;18.00;87.90;;;;;;5054734;28;20392;-74
2021/09/11 06:08:07;;;;;;;6.63;6.00;;;18.00;87.90;;;;;;5073064;28;20578;-73
2021/09/11 06:10:33;;;;;;;8.02;5.72;;;18.10;87.90;;;;;;5054671;28;20472;-73
2021/09/11 06:13:01;;;;;;;8.32;5.97;;;18.10;87.80;;;;;;5072651;28;20365;-73
2021/09/11 06:15:27;;;;;;;8.05;5.65;;;18.10;87.70;;;;;;5054551;28;20032;-74
2021/09/11 06:17:53;;;;;;;6.68;5.95;;;18.20;87.70;;;;;;5054582;28;20032;-74
2021/09/11 06:20:19;;;;;;;8.63;5.65;;;18.20;87.70;;;;;;5072610;28;20135;-74
2021/09/11 06:22:45;;;;;;;7.53;5.97;;;18.20;87.70;;;;;;5072565;28;20021;-74
2021/09/11 06:25:48;;;;;;;6.72;5.60;;;18.20;87.60;;;;;;5054631;28;20387;-73
2021/09/11 06:28:13;;;;;;;7.63;5.50;;;18.20;87.50;;;;;;5054548;28;20025;-74
2021/09/11 06:34:02;;;;;;;8.20;5.70;;;18.20;87.60;;;;;;5072919;28;20403;-74
2021/09/11 06:36:27;;;;;;;6.78;5.25;;;18.20;87.60;;;;;;5075035;28;20021;-75
2021/09/11 06:38:53;;;;;;;8.00;5.43;;;18.20;87.60;;;;;;5072312;28;20055;-75
2021/09/11 06:41:18;;;;;;;7.47;5.68;;;18.20;87.70;;;;;;5051537;28;20165;-75
2021/09/11 06:43:44;;;;;;;7.57;5.43;;;18.20;87.60;;;;;;5054311;28;20090;-74
2021/09/11 06:46:09;;;;;;;6.28;5.68;;;18.20;87.70;;;;;;5057142;28;20031;-75
2021/09/11 06:48:35;;;;;;;6.57;5.88;;;18.20;87.50;;;;;;5076310;28;20100;-75
2021/09/11 06:51:01;;;;;;;8.15;5.40;;;18.20;87.50;;;;;;5058229;28;20111;-73
2021/09/11 06:53:26;;;;;;;6.80;5.65;;;18.30;87.50;;;;;;5058173;28;20070;-73
2021/09/11 06:55:53;;;;;;;8.52;5.68;;;18.30;87.50;;;;;;5058231;28;20498;-75
2021/09/11 06:58:19;;;;;;;6.20;4.82;;;18.40;87.40;;;;;;5058066;28;20020;-74
2021/09/11 07:00:44;;;;;;;6.07;5.10;;;18.40;87.30;;;;;;5075859;28;20027;-75
2021/09/11 07:03:10;;;;;;;7.85;5.30;;;18.40;87.30;;;;;;5054977;28;20395;-75
2021/09/11 07:05:35;;;;;;;8.93;5.75;;;18.50;87.30;;;;;;5075915;28;20030;-74
2021/09/11 07:08:01;;;;;;;6.65;5.25;;;18.50;87.20;;;;;;5057984;28;20059;-74
2021/09/11 07:10:27;;;;;;;6.80;5.60;;;18.50;87.10;;;;;;5076092;28;20036;-75
2021/09/11 07:12:53;;;;;;;7.30;5.28;;;18.60;87.10;;;;;;5075782;28;20025;-75
2021/09/11 07:15:20;;;;;;;7.35;5.45;;;18.50;87.00;;;;;;5057641;28;20024;-74
2021/09/11 07:17:46;;;;;;;7.32;5.30;;;18.60;87.00;;;;;;5076029;28;20388;-74
2021/09/11 07:20:12;;;;;;;6.15;5.00;;;18.60;87.00;;;;;;5057469;28;20047;-75
2021/09/11 07:22:38;;;;;;;5.65;5.05;;;18.60;86.90;;;;;;5057553;28;20024;-74
2021/09/11 07:25:04;;;;;;;5.72;4.95;;;18.70;86.90;;;;;;5075553;28;20488;-74
2021/09/11 07:30:51;;;;;;;8.18;5.45;;;18.80;86.70;;;;;;5075877;28;20399;-75
2021/09/11 07:33:18;;;;;;;5.68;4.60;;;18.80;86.50;;;;;;5057494;28;20021;-74
2021/09/11 07:35:44;;;;;;;7.82;5.22;;;18.80;86.40;;;;;;5057446;28;20021;-74
2021/09/11 07:38:11;;;;;;;7.20;5.50;;;18.90;86.30;;;;;;5050263;28;20099;-75
2021/09/11 07:40:37;;;;;;;6.40;5.32;;;18.90;86.20;;;;;;5035589;28;20026;-75
2021/09/11 07:43:03;;;;;;;6.88;5.38;;;18.90;86.20;;;;;;5034866;28;20106;-75
2021/09/11 07:45:34;;;;;;;6.78;4.93;;;18.90;86.10;;;;;;5034176;28;20021;-75
2021/09/11 07:48:00;;;;;;;8.52;4.93;;;19.00;86.20;;;;;;5067340;28;20029;-73
2021/09/11 07:50:28;;;;;;;8.10;5.28;;;19.00;86.20;;;;;;5033947;28;20097;-75
2021/09/11 07:52:56;;;;;;;8.18;5.80;;;19.20;86.10;;;;;;5033909;28;20026;-74
2021/09/11 07:55:23;;;;;;;6.38;5.43;;;19.30;85.90;;;;;;5067074;28;20032;-74
2021/09/11 07:57:48;;;;;;;9.93;5.90;;;19.40;85.80;;;;;;5066665;28;20389;-74
2021/09/11 08:00:16;;;;;;;7.25;6.10;;;19.30;85.60;;;;;;5066973;28;20028;-74
2021/09/11 08:02:42;;;;;;;6.70;5.40;;;19.40;85.60;;;;;;5066868;28;20030;-74
2021/09/11 08:05:08;;;;;;;8.85;6.00;;;19.40;85.50;;;;;;5034925;28;20432;-75
2021/09/11 08:07:34;;;;;;;6.45;5.50;;;19.50;85.50;;;;;;5033495;28;20092;-74
2021/09/11 08:09:59;;;;;;;6.93;5.90;;;19.50;85.30;;;;;;5066776;28;20430;-75
2021/09/11 08:12:25;;;;;;;6.35;5.75;;;19.50;85.30;;;;;;5033463;28;20021;-75
2021/09/11 08:14:50;;;;;;;7.82;5.70;;;19.50;85.30;;;;;;5033373;28;20017;-75
2021/09/11 08:17:16;;;;;;;7.57;5.53;;;19.60;85.20;;;;;;5033433;28;20032;-74
2021/09/11 08:19:42;;;;;;;5.80;5.20;;;19.50;85.10;;;;;;5066500;28;20025;-74
2021/09/11 08:22:07;;;;;;;5.93;5.32;;;19.50;85.10;;;;;;5066420;28;20026;-74
2021/09/11 08:24:33;;;;;;;7.28;6.53;;;19.60;85.10;;;;;;5066141;28;20017;-74
2021/09/11 08:26:58;;;;;;;7.03;6.15;;;19.60;85.10;;;;;;5066174;28;20021;-74
2021/09/11 08:29:24;;;;;;;8.20;6.25;;;19.60;85.00;;;;;;5066157;28;20477;-73
2021/09/11 08:31:49;;;;;;;7.35;6.50;;;19.70;84.90;;;;;;5066017;28;20021;-74
2021/09/11 08:34:16;;;;;;;6.45;5.85;;;19.70;84.80;;;;;;5033134;28;20461;-73
2021/09/11 08:36:41;;;;;;;8.82;6.63;;;19.70;84.70;;;;;;5032879;28;20022;-73
2021/09/11 08:39:07;;;;;;;6.90;6.20;;;19.80;84.60;;;;;;5065890;28;20448;-73
2021/09/11 08:41:33;;;;;;;7.40;6.70;;;19.80;84.50;;;;;;5065883;28;20033;-73
2021/09/11 08:44:01;;;;;;;8.38;6.72;;;19.90;84.40;;;;;;5033903;28;20025;-74
2021/09/11 08:46:28;;;;;;;8.52;6.63;;;19.90;84.20;;;;;;5034081;28;20010;-74
2021/09/11 08:48:54;;;;;;;8.07;6.63;;;19.90;84.20;;;;;;5065950;28;20477;-74
2021/09/11 08:51:19;;;;;;;8.07;6.88;;;19.90;84.10;;;;;;5033824;28;20021;-74
2021/09/11 08:53:45;;;;;;;7.65;6.70;;;19.90;84.10;;;;;;5065753;28;20175;-74
2021/09/11 08:56:11;;;;;;;7.47;6.78;;;19.90;84.10;;;;;;5065566;28;20033;-74
2021/09/11 08:58:37;;;;;;;9.43;7.18;;;19.90;84.20;;;;;;5065773;28;20486;-74
2021/09/11 09:01:03;;;;;;;7.70;6.90;;;19.90;84.00;;;;;;5065583;28;20112;-74
2021/09/11 09:03:37;;;;;;;8.98;6.70;;;19.90;84.10;;;;;;5065462;28;20025;-74
2021/09/11 09:06:29;;;;;;;8.35;6.95;;;19.90;84.10;;;;;;5033507;28;20474;-74
2021/09/11 09:09:14;;;;;;;8.88;7.20;;;19.90;84.00;;;;;;5031573;28;20474;-74
2021/09/11 09:11:43;;;;;;;8.07;7.00;;;19.90;84.00;;;;;;5033480;28;20037;-74
2021/09/11 09:14:11;;;;;;;8.13;6.97;;;20.00;83.90;;;;;;5065484;28;20021;-74
2021/09/11 09:16:43;;;;;;;7.97;6.43;;;20.00;83.80;;;;;;5032602;28;20389;-73
2021/09/11 09:19:11;;;;;;;8.18;6.80;;;20.10;83.80;;;;;;5033358;28;20021;-73
2021/09/11 09:21:38;;;;;;;6.90;5.88;;;20.10;83.80;;;;;;5065609;28;20481;-74
2021/09/11 09:24:06;;;;;;;8.40;6.72;;;20.20;83.70;;;;;;5033195;28;20116;-74
2021/09/11 09:26:49;;;;;;;7.28;6.57;;;20.20;83.60;;;;;;5065409;28;20036;-74
2021/09/11 09:29:16;;;;;;;;;;;20.20;83.50;;;;;;5065573;28;20512;-74
2021/09/11 09:31:43;;;;;;;7.53;6.80;;;20.20;83.40;;;;;;5065197;28;19996;-74
2021/09/11 09:34:09;;;;;;;8.77;7.22;;;20.10;83.50;;;;;;5033081;28;20335;-73
2021/09/11 09:36:37;;;;;;;9.20;7.63;;;20.10;83.60;;;;;;5065182;28;20049;-74
2021/09/11 09:39:05;;;;;;;8.80;7.65;;;20.10;83.60;;;;;;5059420;28;20049;-74
2021/09/11 09:41:48;;;;;;;9.13;7.30;;;20.10;83.60;;;;;;5054883;28;20383;-74
2021/09/11 09:44:15;;;;;;;9.52;8.57;;;20.10;83.60;;;;;;5072943;28;20024;-74
2021/09/11 09:46:43;;;;;;;8.75;7.95;;;20.10;83.40;;;;;;5088493;28;20056;-75
2021/09/11 09:49:09;;;;;;;9.85;8.20;;;20.20;83.50;;;;;;5072850;28;20524;-74
2021/09/11 09:51:35;;;;;;;9.30;8.40;;;20.20;83.40;;;;;;5072928;28;20016;-76
2021/09/11 09:54:01;;;;;;;9.13;8.20;;;20.20;83.30;;;;;;5072661;28;20044;-74
2021/09/11 09:56:33;;;;;;;11.88;8.88;;;20.20;83.30;;;;;;5054866;28;20384;-74
2021/09/11 09:59:00;;;;;;;10.30;8.75;;;20.20;83.00;;;;;;5054751;28;20048;-74
2021/09/11 10:01:27;;;;;;;10.13;9.13;;;20.20;83.00;;;;;;5051986;28;20028;-74
2021/09/11 10:03:54;;;;;;;10.32;9.30;;;20.30;83.00;;;;;;5072941;28;20366;-74
2021/09/11 10:06:31;;;;;;;10.68;9.10;;;20.30;83.00;;;;;;5054881;28;20017;-75
2021/09/11 10:09:07;;;;;;;10.77;9.15;;;20.30;82.90;;;;;;5072635;28;20025;-74
2021/09/11 10:11:37;;;;;;;10.45;9.45;;;20.40;82.90;;;;;;5072525;28;20067;-74
2021/09/11 10:14:09;;;;;;;10.88;8.98;;;20.30;82.80;;;;;;5072384;28;20017;-75
2021/09/11 10:16:37;;;;;;;10.75;9.60;;;20.30;82.90;;;;;;5054632;28;20118;-75
2021/09/11 10:19:14;;;;;;;10.43;9.18;;;20.30;82.90;;;;;;5054506;28;20028;-74
2021/09/11 10:21:40;;;;;;;10.57;9.55;;;20.40;82.90;;;;;;5076273;28;20021;-74
2021/09/11 10:24:16;;;;;;;10.82;9.73;;;20.40;82.70;;;;;;5076541;28;20537;-75
2021/09/11 10:26:50;;;;;;;10.88;9.85;;;20.40;82.60;;;;;;5058627;28;20029;-74
2021/09/11 10:29:40;;;;;;;13.95;10.60;;;20.40;82.60;;;;;;5076551;28;20487;-75
2021/09/11 10:32:19;;;;;;;12.52;10.63;;;20.40;82.70;;;;;;5051099;28;20036;-74
2021/09/11 10:35:06;;;;;;;12.27;10.88;;;20.40;82.80;;;;;;5076397;28;20392;-74
2021/09/11 10:37:37;;;;;;;11.80;10.30;;;20.40;82.80;;;;;;5058181;28;20487;-74
2021/09/11 10:40:23;;;;;;;14.02;10.93;;;20.30;82.80;;;;;;5058363;28;20040;-75
2021/09/11 10:42:59;;;;;;;12.75;9.95;;;20.30;82.80;;;;;;5092048;28;20159;-74
2021/09/11 10:45:36;;;;;;;12.00;10.63;;;20.30;82.80;;;;;;5076242;28;20027;-74
2021/09/11 10:48:06;;;;;;;11.60;10.40;;;20.30;82.90;;;;;;5076360;28;20547;-74
2021/09/11 10:50:38;;;;;;;10.77;9.45;;;20.20;82.90;;;;;;5058137;28;20024;-75
2021/09/11 10:53:22;;;;;;;13.20;11.25;;;20.30;82.90;;;;;;5091832;28;20029;-75
2021/09/11 10:55:48;;;;;;;12.50;10.30;;;20.30;82.90;;;;;;5076007;28;20040;-75
2021/09/11 10:58:27;;;;;;;10.73;9.63;;;20.30;82.90;;;;;;5057861;28;20089;-74
2021/09/11 11:00:56;;;;;;;11.80;9.75;;;20.30;82.80;;;;;;5058131;28;20059;-75
2021/09/11 11:03:22;;;;;;;10.82;9.68;;;20.30;82.80;;;;;;5057866;28;20036;-75
2021/09/11 11:06:04;;;;;;;13.00;9.60;;;20.40;82.80;;;;;;5057960;28;20450;-75
2021/09/11 11:08:31;;;;;;;10.50;9.43;;;20.50;83.40;;;;;;5075872;28;20024;-75
2021/09/11 11:11:01;;;;;;;11.60;10.05;;;20.60;82.60;;;;;;5057808;28;20070;-73
2021/09/11 11:13:27;;;;;;;11.32;9.45;;;20.60;82.50;;;;;;5075639;28;20103;-75
2021/09/11 11:15:54;;;;;;;10.70;9.60;;;20.70;82.50;;;;;;5057678;28;20112;-74
2021/09/11 11:18:20;;;;;;;13.23;10.82;;;20.80;82.40;;;;;;5075670;28;20138;-75
2021/09/11 11:20:46;;;;;;;13.52;12.15;;;20.70;82.20;;;;;;5075534;28;20024;-76
2021/09/11 11:23:12;;;;;;;13.93;12.38;;;20.70;82.10;;;;;;5075385;28;20540;-74
2021/09/11 11:25:39;;;;;;;12.30;10.98;;;20.80;82.00;;;;;;5075384;28;20361;-74
2021/09/11 11:28:14;;;;;;;11.77;10.60;;;21.00;81.90;;;;;;5057520;28;20017;-75
2021/09/11 11:30:42;;;;;;;11.95;10.73;;;21.10;81.60;;;;;;5056648;28;20021;-75
2021/09/11 11:33:08;;;;;;;11.85;10.65;;;21.30;81.40;;;;;;5057424;28;20021;-75
2021/09/11 11:35:37;;;;;;;12.23;10.45;;;21.40;81.20;;;;;;5057279;28;20036;-75
2021/09/11 11:38:03;;;;;;;12.43;11.15;;;21.50;81.10;;;;;;5075161;28;20049;-75
2021/09/11 11:40:29;;;;;;;11.82;10.63;;;21.50;80.80;;;;;;5057306;28;20395;-75
2021/09/11 11:43:01;;;;;;;13.80;11.73;;;21.60;81.30;;;;;;5057217;28;20507;-75
2021/09/11 11:45:27;;;;;;;11.80;10.65;;;21.70;80.30;;;;;;5056993;28;20025;-75
2021/09/11 11:48:02;;;;;;;12.00;10.77;;;21.80;80.10;;;;;;5057168;28;20044;-75
2021/09/11 11:50:31;;;;;;;12.20;10.90;;;22.00;79.50;;;;;;5075186;28;20035;-74
2021/09/11 11:53:01;;;;;;;12.57;10.70;;;22.00;79.00;;;;;;5057066;28;20086;-74
2021/09/11 11:55:31;;;;;;;10.32;9.23;;;22.10;79.00;;;;;;5074874;28;20074;-74
2021/09/11 12:01:29;;;;;;;9.13;8.32;;;22.40;78.60;;;;;;5075216;28;20487;-74
2021/09/11 12:03:54;;;;;;;10.45;9.35;;;22.50;78.10;;;;;;5056835;28;20175;-73
2021/09/11 12:06:19;;;;;;;10.07;8.93;;;22.60;77.80;;;;;;5056791;28;20111;-74
2021/09/11 12:08:47;;;;;;;10.23;9.15;;;22.70;77.80;;;;;;5056672;28;20111;-74
2021/09/11 12:11:39;;;;;;;9.80;8.90;;;22.70;77.70;;;;;;5074609;28;20087;-75
2021/09/11 12:14:05;;;;;;;9.50;8.52;;;22.70;77.70;;;;;;5069913;28;20146;-74
2021/09/11 12:16:32;;;;;;;12.20;9.55;;;22.70;77.70;;;;;;5074605;28;20121;-75
2021/09/11 12:19:18;;;;;;;10.90;9.80;;;22.60;77.20;;;;;;5074581;28;20102;-75
2021/09/11 12:21:44;;;;;;;10.93;9.88;;;22.50;77.20;;;;;;5074501;28;20032;-74
2021/09/11 12:24:24;;;;;;;11.32;10.18;;;22.30;77.10;;;;;;5056399;28;20357;-74
2021/09/11 12:26:50;;;;;;;10.38;9.30;;;22.20;77.30;;;;;;5074496;28;20024;-75
2021/09/11 12:29:17;;;;;;;7.65;6.93;;;22.00;77.60;;;;;;5056803;28;20040;-74
2021/09/11 12:31:56;;;;;;;6.57;5.97;;;21.90;78.00;;;;;;5074261;28;20024;-74
2021/09/11 12:34:22;;;;;;;5.85;5.35;;;21.50;78.80;;;;;;5086895;28;20123;-75
2021/09/11 12:36:57;;;;;;;4.60;4.20;;;21.20;79.80;;;;;;5089801;28;20024;-75
2021/09/11 12:39:28;;;;;;;4.35;3.53;;;20.90;80.80;;;;;;5056132;28;20063;-75
2021/09/11 12:41:57;;;;;;;4.35;3.95;;;20.70;81.40;;;;;;5055794;28;20107;-74
2021/09/11 12:44:30;;;;;;;4.53;4.13;;;20.60;81.70;;;;;;5055405;28;20055;-75
2021/09/11 12:46:57;;;;;;;;;;;20.50;81.90;;;;;;5056711;28;20016;-75
2021/09/11 12:49:27;;;;;;;4.15;3.83;;;20.50;82.20;;;;;;5074055;28;20050;-75
2021/09/11 12:55:15;;;;;;;3.60;3.30;;;20.50;82.60;;;;;;5073913;28;20446;-74
2021/09/11 12:57:40;;;;;;;3.70;3.40;;;20.70;82.60;;;;;;5055940;28;20103;-75